Time;durP1;ratioP1;P1;durP2;ratioP2;P2;SDS_P1;SDS_P2;PMS_P1;PMS_P2;Temp;Humidity;BMP_temperature;BMP_pressure;BME280_temperature;BME280_humidity;BME280_pressure;Samples;Min_cycle;Max_cycle;Signal;HPM_P1;HPM_P2
2021/09/18 00:01:17;;;;;;;;;;;20.40;69.80;;;;;;5016598;28;19921;-59
2021/09/18 00:03:43;;;;;;;;;;;20.40;69.50;;;;;;5012025;28;19961;-57
2021/09/18 00:06:08;;;;;;;;;;;20.40;69.70;;;;;;5004460;28;19924;-55
2021/09/18 00:08:34;;;;;;;;;;;20.40;69.70;;;;;;5009675;28;19921;-58
2021/09/18 00:10:59;;;;;;;;;;;20.40;69.60;;;;;;5017077;28;19929;-58
2021/09/18 00:13:25;;;;;;;;;;;20.40;69.50;;;;;;5019593;28;20321;-59
2021/09/18 00:15:50;;;;;;;;;;;20.40;69.40;;;;;;5013214;28;19932;-58
2021/09/18 00:18:15;;;;;;;;;;;20.40;69.60;;;;;;5009648;28;19920;-59
2021/09/18 00:20:41;;;;;;;;;;;20.40;69.70;;;;;;5009154;28;19914;-58
2021/09/18 00:23:06;;;;;;;;;;;20.40;69.50;;;;;;5003116;28;19913;-57
2021/09/18 00:25:32;;;;;;;;;;;20.30;69.60;;;;;;5023296;28;19914;-63
2021/09/18 00:27:57;;;;;;;;;;;20.30;69.50;;;;;;5024882;28;20476;-60
2021/09/18 00:30:23;;;;;;;;;;;20.40;69.60;;;;;;5012355;28;19924;-56
2021/09/18 00:32:48;;;;;;;;;;;20.40;69.60;;;;;;5012113;28;19918;-57
2021/09/18 00:35:14;;;;;;;;;;;20.30;69.40;;;;;;5011729;28;19920;-56
2021/09/18 00:37:39;;;;;;;;;;;20.40;69.60;;;;;;5009710;28;19959;-57
2021/09/18 00:40:05;;;;;;;;;;;20.30;69.60;;;;;;5007542;28;20316;-56
2021/09/18 00:42:31;;;;;;;;;;;20.30;69.60;;;;;;5016598;28;19925;-58
2021/09/18 00:44:56;;;;;;;;;;;20.40;69.70;;;;;;5010794;28;20287;-56
2021/09/18 00:47:21;;;;;;;;;;;20.30;69.60;;;;;;5015841;28;19921;-58
2021/09/18 00:49:47;;;;;;;;;;;20.40;70.20;;;;;;5022557;28;19913;-60
2021/09/18 00:52:18;;;;;;;;;;;20.40;69.60;;;;;;5018213;28;19913;-57
2021/09/18 00:54:45;;;;;;;;;;;20.30;69.60;;;;;;5016209;28;19921;-57
2021/09/18 00:57:11;;;;;;;;;;;20.30;69.60;;;;;;5019615;28;19913;-59
2021/09/18 00:59:36;;;;;;;;;;;20.30;69.60;;;;;;5005048;28;20264;-57
2021/09/18 01:02:01;;;;;;;;;;;20.30;69.60;;;;;;5003984;28;19921;-59
2021/09/18 01:04:27;;;;;;;;;;;20.30;69.60;;;;;;5021835;28;19913;-58
2021/09/18 01:06:52;;;;;;;;;;;20.30;69.30;;;;;;5019936;28;20682;-57
2021/09/18 01:09:19;;;;;;;;;;;20.30;69.50;;;;;;5022198;28;19917;-57
2021/09/18 01:11:46;;;;;;;;;;;20.30;69.50;;;;;;5020306;28;19913;-58
2021/09/18 01:14:11;;;;;;;;;;;20.30;69.50;;;;;;4997556;28;20405;-60
2021/09/18 01:16:37;;;;;;;;;;;20.30;69.40;;;;;;5011210;28;19921;-60
2021/09/18 01:19:02;;;;;;;;;;;20.30;69.50;;;;;;5016814;28;20362;-62
2021/09/18 01:21:27;;;;;;;;;;;20.30;69.60;;;;;;5009931;28;19928;-60
2021/09/18 01:23:54;;;;;;;;;;;20.30;69.30;;;;;;5021709;28;19917;-56
2021/09/18 01:26:29;;;;;;;;;;;20.30;69.40;;;;;;5012819;28;19925;-59
2021/09/18 01:28:54;;;;;;;;;;;20.30;69.50;;;;;;5011333;28;19913;-60
2021/09/18 01:31:20;;;;;;;;;;;20.30;69.40;;;;;;5008864;28;20035;-58
2021/09/18 01:33:45;;;;;;;;;;;20.30;69.40;;;;;;5019778;28;19920;-59
2021/09/18 01:36:11;;;;;;;;;;;20.30;69.40;;;;;;5009453;28;20406;-59
2021/09/18 01:38:37;;;;;;;;;;;20.30;69.50;;;;;;5017480;28;19996;-58
2021/09/18 01:41:02;;;;;;;;;;;20.30;69.50;;;;;;5010743;28;20337;-57
2021/09/18 01:43:29;;;;;;;;;;;20.30;69.50;;;;;;5020011;28;19925;-59
2021/09/18 01:45:54;;;;;;;;;;;20.30;69.50;;;;;;5022355;28;19913;-59
2021/09/18 01:48:20;;;;;;;;;;;20.30;69.40;;;;;;5010457;28;20303;-59
2021/09/18 01:50:47;;;;;;;;;;;20.30;69.30;;;;;;5016409;28;19913;-59
2021/09/18 01:53:14;;;;;;;;;;;20.30;69.50;;;;;;5018394;28;19955;-57
2021/09/18 01:55:39;;;;;;;;;;;20.30;69.70;;;;;;5024153;28;20007;-57
2021/09/18 01:58:05;;;;;;;;;;;20.30;69.40;;;;;;5014041;28;20255;-60
2021/09/18 02:00:30;;;;;;;;;;;20.30;69.40;;;;;;5013874;28;19913;-57
2021/09/18 02:02:56;;;;;;;;;;;20.30;69.50;;;;;;5023799;28;19921;-59
2021/09/18 02:05:25;;;;;;;;;;;20.30;69.40;;;;;;5014038;28;20007;-59
2021/09/18 02:07:51;;;;;;;;;;;20.30;69.40;;;;;;5017188;28;20016;-56
2021/09/18 02:10:18;;;;;;;;;;;20.30;69.40;;;;;;5008701;28;20368;-58
2021/09/18 02:12:44;;;;;;;;;;;20.30;69.30;;;;;;5018434;28;19940;-55
2021/09/18 02:15:09;;;;;;;;;;;20.30;69.30;;;;;;5009379;28;19956;-55
2021/09/18 02:17:35;;;;;;;;;;;20.30;69.40;;;;;;5003240;28;19913;-57
2021/09/18 02:20:00;;;;;;;;;;;20.30;69.40;;;;;;5014987;28;19917;-55
2021/09/18 02:22:26;;;;;;;;;;;20.30;69.40;;;;;;5019275;28;20263;-58
2021/09/18 02:24:51;;;;;;;;;;;20.30;69.30;;;;;;5013571;28;19963;-59
2021/09/18 02:27:17;;;;;;;;;;;20.30;69.40;;;;;;5013037;28;20403;-58
2021/09/18 02:29:42;;;;;;;;;;;20.30;69.40;;;;;;5020903;28;19913;-58
2021/09/18 02:32:07;;;;;;;;;;;20.30;69.30;;;;;;5019434;28;20199;-58
2021/09/18 02:34:33;;;;;;;;;;;20.30;69.30;;;;;;5003790;28;19924;-63
2021/09/18 02:36:58;;;;;;;;;;;20.30;69.30;;;;;;5016519;28;20378;-58
2021/09/18 02:39:24;;;;;;;;;;;20.30;69.30;;;;;;5017419;28;20000;-56
2021/09/18 02:41:49;;;;;;;;;;;20.20;69.30;;;;;;5013879;28;19921;-58
2021/09/18 02:44:15;;;;;;;;;;;20.20;69.20;;;;;;5014264;28;19920;-59
2021/09/18 02:46:40;;;;;;;;;;;20.30;69.30;;;;;;5016669;28;20404;-59
2021/09/18 02:49:06;;;;;;;;;;;20.20;69.20;;;;;;5022747;28;19920;-58
2021/09/18 02:51:31;;;;;;;;;;;20.30;69.10;;;;;;5010542;28;19914;-59
2021/09/18 02:53:58;;;;;;;;;;;20.30;69.20;;;;;;4995962;28;19922;-57
2021/09/18 02:56:24;;;;;;;;;;;20.20;69.10;;;;;;5005332;28;19924;-58
2021/09/18 02:58:49;;;;;;;;;;;20.20;69.10;;;;;;5018396;28;20286;-58
2021/09/18 03:01:15;;;;;;;;;;;20.20;69.10;;;;;;5005738;28;19921;-58
2021/09/18 03:03:40;;;;;;;;;;;20.30;69.00;;;;;;5002534;28;19913;-58
2021/09/18 03:06:05;;;;;;;;;;;20.20;69.00;;;;;;5022029;28;19928;-57
2021/09/18 03:08:31;;;;;;;;;;;20.20;69.10;;;;;;5001647;28;19921;-56
2021/09/18 03:10:56;;;;;;;;;;;20.20;69.10;;;;;;5014549;28;19917;-58
2021/09/18 03:13:22;;;;;;;;;;;20.20;69.10;;;;;;5008765;28;20400;-59
2021/09/18 03:15:48;;;;;;;;;;;20.30;69.00;;;;;;5004021;28;19975;-58
2021/09/18 03:18:13;;;;;;;;;;;20.20;69.00;;;;;;5018558;28;19914;-59
2021/09/18 03:20:38;;;;;;;;;;;20.20;69.00;;;;;;5009729;28;19924;-58
2021/09/18 03:23:04;;;;;;;;;;;20.20;69.10;;;;;;5015578;28;19913;-59
2021/09/18 03:25:29;;;;;;;;;;;20.20;69.00;;;;;;5009516;28;20429;-57
2021/09/18 03:27:55;;;;;;;;;;;20.20;69.00;;;;;;5007495;28;20085;-57
2021/09/18 03:30:20;;;;;;;;;;;20.20;69.00;;;;;;5010550;28;19967;-57
2021/09/18 03:32:46;;;;;;;;;;;20.20;68.90;;;;;;5008845;28;19913;-57
2021/09/18 03:35:11;;;;;;;;;;;20.20;69.00;;;;;;5011717;28;20366;-58
2021/09/18 03:37:37;;;;;;;;;;;20.20;68.90;;;;;;5016994;28;19983;-59
2021/09/18 03:40:06;;;;;;;;;;;20.20;68.90;;;;;;5009275;28;19928;-59
2021/09/18 03:42:31;;;;;;;;;;;20.20;68.80;;;;;;5016082;28;20383;-59
2021/09/18 03:44:57;;;;;;;;;;;20.20;68.80;;;;;;5015268;28;19922;-60
2021/09/18 03:47:22;;;;;;;;;;;20.20;68.80;;;;;;5014974;28;20325;-60
2021/09/18 03:49:48;;;;;;;;;;;20.20;68.80;;;;;;5007884;28;19921;-60
2021/09/18 03:52:13;;;;;;;;;;;20.20;68.80;;;;;;5006681;28;19913;-60
2021/09/18 03:54:38;;;;;;;;;;;20.20;68.80;;;;;;5013127;28;19921;-59
2021/09/18 03:57:04;;;;;;;;;;;20.20;68.80;;;;;;5001140;28;19913;-60
2021/09/18 03:59:29;;;;;;;;;;;20.20;68.80;;;;;;5001099;28;19914;-60
2021/09/18 04:01:55;;;;;;;;;;;20.20;68.80;;;;;;5010959;28;19949;-59
2021/09/18 04:04:20;;;;;;;;;;;20.20;68.80;;;;;;5007906;28;20176;-58
2021/09/18 04:06:48;;;;;;;;;;;20.20;68.70;;;;;;5006251;28;19914;-59
2021/09/18 04:09:13;;;;;;;;;;;20.20;68.70;;;;;;5009171;28;19918;-59
2021/09/18 04:11:39;;;;;;;;;;;20.20;68.80;;;;;;5009243;28;19917;-59
2021/09/18 04:14:04;;;;;;;;;;;20.20;68.60;;;;;;5013978;28;19923;-59
2021/09/18 04:16:30;;;;;;;;;;;20.20;68.50;;;;;;5017631;28;19921;-58
2021/09/18 04:18:55;;;;;;;;;;;20.20;68.60;;;;;;5019243;28;19917;-59
2021/09/18 04:21:20;;;;;;;;;;;20.20;68.60;;;;;;5006478;28;19917;-57
2021/09/18 04:23:46;;;;;;;;;;;20.20;68.50;;;;;;5011431;28;20056;-58
2021/09/18 04:26:11;;;;;;;;;;;20.20;68.50;;;;;;5015227;28;19945;-58
2021/09/18 04:28:37;;;;;;;;;;;20.20;68.40;;;;;;5014463;28;20298;-58
2021/09/18 04:31:02;;;;;;;;;;;20.20;68.60;;;;;;5008311;28;19924;-59
2021/09/18 04:33:28;;;;;;;;;;;20.20;68.50;;;;;;5017778;28;19963;-58
2021/09/18 04:35:54;;;;;;;;;;;20.20;67.80;;;;;;5010636;28;19921;-59
2021/09/18 04:38:19;;;;;;;;;;;20.10;68.40;;;;;;5013379;28;20306;-58
2021/09/18 04:40:45;;;;;;;;;;;20.20;68.00;;;;;;5000382;28;19928;-59
2021/09/18 04:43:10;;;;;;;;;;;20.20;67.60;;;;;;5002557;28;20501;-57
2021/09/18 04:45:35;;;;;;;;;;;20.20;67.70;;;;;;4995699;28;19913;-59
2021/09/18 04:48:01;;;;;;;;;;;20.20;68.10;;;;;;5007043;28;19920;-57
2021/09/18 04:50:26;;;;;;;;;;;20.20;68.40;;;;;;5005089;28;19913;-57
2021/09/18 04:52:52;;;;;;;;;;;20.20;68.40;;;;;;5003056;28;19976;-56
2021/09/18 04:55:17;;;;;;;;;;;20.10;67.00;;;;;;5001972;28;19968;-57
2021/09/18 04:57:43;;;;;;;;;;;20.20;67.80;;;;;;5010445;28;19923;-59
2021/09/18 05:00:09;;;;;;;;;;;20.10;68.30;;;;;;5021315;28;20373;-56
2021/09/18 05:02:34;;;;;;;;;;;20.20;68.30;;;;;;5012445;28;19921;-56
2021/09/18 05:04:59;;;;;;;;;;;20.10;68.40;;;;;;5002180;28;20532;-58
2021/09/18 05:07:25;;;;;;;;;;;20.20;68.40;;;;;;5014999;28;19917;-56
2021/09/18 05:09:50;;;;;;;;;;;20.10;68.00;;;;;;5020057;28;19921;-57
2021/09/18 05:12:16;;;;;;;;;;;20.10;68.10;;;;;;5016802;28;19913;-57
2021/09/18 05:14:41;;;;;;;;;;;20.10;68.00;;;;;;5019775;28;19924;-54
2021/09/18 05:17:07;;;;;;;;;;;20.10;68.20;;;;;;5015829;28;19928;-57
2021/09/18 05:19:33;;;;;;;;;;;20.10;68.00;;;;;;5003983;28;19953;-59
2021/09/18 05:21:58;;;;;;;;;;;20.10;68.00;;;;;;5012147;28;20047;-57
2021/09/18 05:24:25;;;;;;;;;;;20.10;68.10;;;;;;5024814;28;19925;-56
2021/09/18 05:26:50;;;;;;;;;;;20.10;68.20;;;;;;5016937;28;19920;-58
2021/09/18 05:29:16;;;;;;;;;;;20.10;67.90;;;;;;5023554;28;19913;-58
2021/09/18 05:31:41;;;;;;;;;;;20.10;68.00;;;;;;5013428;28;19921;-55
2021/09/18 05:34:07;;;;;;;;;;;20.10;68.10;;;;;;5014716;28;19913;-57
2021/09/18 05:36:32;;;;;;;;;;;20.10;68.20;;;;;;5005228;28;19924;-59
2021/09/18 05:38:58;;;;;;;;;;;20.10;68.00;;;;;;5017223;28;19944;-55
2021/09/18 05:41:23;;;;;;;;;;;20.10;66.00;;;;;;5015299;28;19932;-59
2021/09/18 05:43:49;;;;;;;;;;;20.00;67.40;;;;;;5018301;28;19940;-57
2021/09/18 05:46:14;;;;;;;;;;;20.10;68.20;;;;;;5000841;28;19920;-59
2021/09/18 05:48:39;;;;;;;;;;;20.10;66.20;;;;;;5005144;28;19971;-59
2021/09/18 05:51:05;;;;;;;;;;;20.10;67.90;;;;;;5007073;28;20425;-64
2021/09/18 05:53:30;;;;;;;;;;;20.10;68.10;;;;;;5011235;28;19921;-59
2021/09/18 05:55:56;;;;;;;;;;;20.00;67.10;;;;;;4998422;28;19933;-57
2021/09/18 05:58:21;;;;;;;;;;;20.10;67.80;;;;;;5024523;28;19920;-59
2021/09/18 06:00:47;;;;;;;;;;;20.10;67.80;;;;;;5012802;28;19920;-59
2021/09/18 06:03:12;;;;;;;;;;;20.10;68.20;;;;;;5012263;28;20329;-59
2021/09/18 06:05:38;;;;;;;;;;;20.10;68.10;;;;;;5008843;28;19921;-57
2021/09/18 06:08:03;;;;;;;;;;;20.00;67.40;;;;;;5012570;28;20422;-58
2021/09/18 06:10:29;;;;;;;;;;;20.00;68.10;;;;;;5008992;28;19960;-59
2021/09/18 06:12:54;;;;;;;;;;;20.00;67.90;;;;;;5017482;28;19917;-59
2021/09/18 06:15:20;;;;;;;;;;;20.00;67.90;;;;;;5012332;28;19925;-58
2021/09/18 06:17:45;;;;;;;;;;;20.10;68.00;;;;;;5024508;28;19921;-59
2021/09/18 06:20:11;;;;;;;;;;;20.10;68.10;;;;;;5015818;28;20268;-58
2021/09/18 06:22:36;;;;;;;;;;;20.00;68.10;;;;;;5017686;28;20021;-60
2021/09/18 06:25:02;;;;;;;;;;;20.00;68.10;;;;;;5010405;28;20491;-57
2021/09/18 06:27:28;;;;;;;;;;;20.00;67.40;;;;;;5011821;28;19913;-59
2021/09/18 06:29:54;;;;;;;;;;;20.00;68.00;;;;;;5019607;28;19917;-57
2021/09/18 06:32:22;;;;;;;;;;;20.00;67.90;;;;;;5014443;28;20307;-57
2021/09/18 06:34:47;;;;;;;;;;;20.00;68.00;;;;;;5002933;28;20445;-58
2021/09/18 06:37:13;;;;;;;;;;;20.00;66.90;;;;;;5020283;28;20075;-59
2021/09/18 06:39:38;;;;;;;;;;;20.00;67.80;;;;;;5009887;28;20596;-58
2021/09/18 06:42:04;;;;;;;;;;;20.00;67.90;;;;;;5010211;28;19917;-59
2021/09/18 06:44:29;;;;;;;;;;;20.00;67.90;;;;;;5019442;28;20008;-59
2021/09/18 06:46:55;;;;;;;;;;;20.00;68.00;;;;;;5015513;28;19997;-57
2021/09/18 06:49:20;;;;;;;;;;;20.00;68.00;;;;;;5010439;28;20374;-59
2021/09/18 06:51:46;;;;;;;;;;;20.00;68.10;;;;;;5012043;28;19920;-56
2021/09/18 06:54:11;;;;;;;;;;;20.00;67.90;;;;;;5017611;28;20259;-55
2021/09/18 06:56:36;;;;;;;;;;;20.00;67.70;;;;;;5008236;28;20025;-58
2021/09/18 06:59:02;;;;;;;;;;;20.00;68.20;;;;;;5018956;28;19914;-58
2021/09/18 07:01:27;;;;;;;;;;;20.00;68.40;;;;;;5009729;28;20056;-57
2021/09/18 07:03:53;;;;;;;;;;;20.00;68.30;;;;;;5023489;28;20162;-57
2021/09/18 07:06:19;;;;;;;;;;;20.00;68.00;;;;;;5010879;28;19914;-57
2021/09/18 07:08:44;;;;;;;;;;;19.90;68.30;;;;;;5018905;28;19917;-58
2021/09/18 07:11:10;;;;;;;;;;;20.00;68.60;;;;;;5006238;28;19914;-59
2021/09/18 07:13:35;;;;;;;;;;;20.00;68.60;;;;;;5005766;28;19925;-58
2021/09/18 07:16:02;;;;;;;;;;;20.00;68.80;;;;;;5015468;28;20447;-57
2021/09/18 07:18:27;;;;;;;;;;;20.00;68.50;;;;;;5010581;28;19914;-58
2021/09/18 07:20:53;;;;;;;;;;;20.00;68.60;;;;;;5003788;28;19917;-58
2021/09/18 07:23:19;;;;;;;;;;;20.00;67.80;;;;;;5008992;28;19917;-60
2021/09/18 07:25:45;;;;;;;;;;;20.00;68.50;;;;;;5003264;28;19925;-59
2021/09/18 07:28:10;;;;;;;;;;;20.00;68.60;;;;;;5015786;28;19913;-57
2021/09/18 07:30:36;;;;;;;;;;;20.00;68.80;;;;;;5011525;28;19920;-59
2021/09/18 07:33:01;;;;;;;;;;;20.00;69.20;;;;;;4994718;28;19959;-58
2021/09/18 07:35:27;;;;;;;;;;;19.90;68.90;;;;;;5017749;28;20110;-57
2021/09/18 07:37:52;;;;;;;;;;;20.00;69.60;;;;;;5014052;28;20105;-56
2021/09/18 07:40:18;;;;;;;;;;;19.90;69.60;;;;;;5011514;28;19913;-57
2021/09/18 07:42:43;;;;;;;;;;;19.90;69.60;;;;;;5021414;28;19917;-58
2021/09/18 07:45:10;;;;;;;;;;;19.90;69.60;;;;;;5016867;28;19978;-57
2021/09/18 07:47:35;;;;;;;;;;;20.00;69.40;;;;;;5012445;28;19937;-59
2021/09/18 07:50:01;;;;;;;;;;;19.90;69.50;;;;;;5007065;28;20391;-58
2021/09/18 07:52:26;;;;;;;;;;;19.90;69.30;;;;;;5020554;28;19955;-59
2021/09/18 07:54:52;;;;;;;;;;;20.00;69.20;;;;;;5018166;28;20498;-57
2021/09/18 07:57:18;;;;;;;;;;;19.90;68.70;;;;;;5004590;28;19970;-57
2021/09/18 07:59:43;;;;;;;;;;;20.00;68.70;;;;;;5002443;28;19914;-59
2021/09/18 08:02:09;;;;;;;;;;;19.90;68.70;;;;;;5006797;28;20391;-58
2021/09/18 08:04:35;;;;;;;;;;;19.90;68.50;;;;;;5002336;28;20468;-58
2021/09/18 08:07:00;;;;;;;;;;;19.90;68.40;;;;;;5008732;28;19917;-59
2021/09/18 08:09:26;;;;;;;;;;;19.90;67.80;;;;;;5013625;28;20554;-59
2021/09/18 08:11:51;;;;;;;;;;;19.90;68.10;;;;;;5009055;28;19956;-59
2021/09/18 08:14:16;;;;;;;;;;;19.90;68.20;;;;;;5013211;28;20390;-60
2021/09/18 08:16:42;;;;;;;;;;;19.90;68.10;;;;;;5010232;28;19968;-57
2021/09/18 08:19:07;;;;;;;;;;;19.90;68.40;;;;;;5005379;28;19924;-59
2021/09/18 08:21:33;;;;;;;;;;;19.90;67.80;;;;;;5014984;28;19917;-61
2021/09/18 08:23:58;;;;;;;;;;;19.90;67.80;;;;;;5007162;28;20394;-57
2021/09/18 08:26:28;;;;;;;;;;;19.90;67.90;;;;;;5010756;28;19940;-58
2021/09/18 08:28:53;;;;;;;;;;;19.90;67.70;;;;;;5012766;28;19917;-60
2021/09/18 08:31:19;;;;;;;;;;;20.00;67.80;;;;;;5019956;28;19918;-60
2021/09/18 08:33:44;;;;;;;;;;;19.90;67.70;;;;;;5013693;28;20584;-57
2021/09/18 08:36:09;;;;;;;;;;;19.90;67.60;;;;;;5013399;28;19913;-59
2021/09/18 08:38:35;;;;;;;;;;;19.90;67.80;;;;;;5009491;28;20389;-60
2021/09/18 08:41:00;;;;;;;;;;;19.90;67.80;;;;;;5014184;28;19967;-60
2021/09/18 08:43:26;;;;;;;;;;;19.90;68.20;;;;;;5016149;28;19921;-58
2021/09/18 08:45:51;;;;;;;;;;;19.90;69.40;;;;;;5017605;28;19914;-58
2021/09/18 08:48:17;;;;;;;;;;;19.80;69.70;;;;;;5024863;28;19933;-60
2021/09/18 08:50:42;;;;;;;;;;;19.90;69.20;;;;;;5020595;28;19913;-59
2021/09/18 08:53:08;;;;;;;;;;;19.90;68.60;;;;;;5018849;28;20414;-57
2021/09/18 08:55:33;;;;;;;;;;;19.90;68.20;;;;;;5004017;28;20334;-58
2021/09/18 08:57:59;;;;;;;;;;;19.90;67.80;;;;;;5010292;28;19917;-57
2021/09/18 09:00:33;;;;;;;;;;;19.90;66.80;;;;;;5018522;28;20108;-59
2021/09/18 09:03:05;;;;;;;;;;;19.90;66.60;;;;;;5016577;28;20012;-58
2021/09/18 09:05:31;;;;;;;;;;;19.90;66.20;;;;;;5006881;28;19967;-60
2021/09/18 09:08:07;;;;;;;;;;;19.90;66.30;;;;;;5006576;28;19913;-60
2021/09/18 09:10:32;;;;;;;;;;;19.90;65.90;;;;;;5019766;28;20557;-59
2021/09/18 09:13:03;;;;;;;;;;;19.90;65.80;;;;;;5020717;28;19997;-60
2021/09/18 09:15:28;;;;;;;;;;;19.90;65.80;;;;;;5022302;28;19925;-60
2021/09/18 09:17:53;;;;;;;;;;;19.90;65.70;;;;;;5016360;28;19919;-60
2021/09/18 09:20:23;;;;;;;;;;;19.80;65.40;;;;;;5021354;28;19917;-61
2021/09/18 09:22:50;;;;;;;;;;;19.80;65.10;;;;;;5010471;28;19917;-59
2021/09/18 09:25:30;;;;;;;;;;;19.80;64.70;;;;;;5009336;28;19949;-61
2021/09/18 09:27:56;;;;;;;;;;;19.80;64.50;;;;;;5006280;28;19960;-59
2021/09/18 09:30:29;;;;;;;;;;;19.80;64.10;;;;;;5018543;28;19913;-60
2021/09/18 09:32:54;;;;;;;;;;;19.80;64.00;;;;;;5025231;28;20007;-60
2021/09/18 09:35:20;;;;;;;;;;;19.80;64.00;;;;;;5023701;28;19913;-60
2021/09/18 09:37:52;;;;;;;;;;;19.80;63.70;;;;;;5008760;28;19913;-59
2021/09/18 09:40:17;;;;;;;;;;;19.80;63.50;;;;;;5007364;28;20748;-60
2021/09/18 09:42:43;;;;;;;;;;;19.70;63.20;;;;;;5009034;28;19917;-60
2021/09/18 09:45:15;;;;;;;;;;;19.70;63.10;;;;;;5011604;28;20414;-58
2021/09/18 09:47:41;;;;;;;;;;;19.80;63.10;;;;;;5011586;28;20004;-59
2021/09/18 09:50:07;;;;;;;;;;;19.80;63.00;;;;;;5005280;28;20403;-58
2021/09/18 09:52:33;;;;;;;;;;;19.80;62.80;;;;;;5006238;28;19920;-55
2021/09/18 09:55:11;;;;;;;;;;;19.70;62.90;;;;;;5014849;28;20668;-56
2021/09/18 09:57:37;;;;;;;;;;;19.70;62.70;;;;;;5014225;28;20342;-57
2021/09/18 10:00:05;;;;;;;;;;;19.70;62.60;;;;;;5016962;28;19914;-55
2021/09/18 10:02:30;;;;;;;;;;;19.70;61.10;;;;;;5005202;28;19917;-57
2021/09/18 10:04:56;;;;;;;;;;;19.70;61.90;;;;;;5012342;28;19919;-58
2021/09/18 10:07:21;;;;;;;;;;;19.70;61.90;;;;;;5013307;28;19997;-56
2021/09/18 10:09:47;;;;;;;;;;;19.70;61.70;;;;;;4998739;28;19914;-59
2021/09/18 10:12:13;;;;;;;;;;;19.70;61.70;;;;;;5022405;28;19924;-59
2021/09/18 10:14:41;;;;;;;;;;;19.70;61.70;;;;;;5008811;28;19953;-58
2021/09/18 10:17:06;;;;;;;;;;;19.70;61.50;;;;;;4995244;28;19943;-57
2021/09/18 10:24:48;;;;;;;;;;;19.70;61.60;;;;;;5023849;28;20062;-59
2021/09/18 10:27:13;;;;;;;;;;;19.70;61.60;;;;;;5024049;28;20033;-55
2021/09/18 10:29:39;;;;;;;;;;;19.70;61.90;;;;;;5005460;28;19913;-57
2021/09/18 10:32:04;;;;;;;;;;;19.70;61.80;;;;;;5021105;28;19920;-59
2021/09/18 10:34:30;;;;;;;;;;;19.60;61.80;;;;;;5007436;28;20394;-56
2021/09/18 10:36:55;;;;;;;;;;;19.60;61.70;;;;;;5023209;28;19917;-57
2021/09/18 10:39:20;;;;;;;;;;;19.60;61.80;;;;;;5004128;28;19917;-59
2021/09/18 10:41:56;;;;;;;;;;;19.60;61.80;;;;;;5008062;28;20437;-59
2021/09/18 10:44:22;;;;;;;;;;;19.60;61.80;;;;;;5012409;28;19920;-59
2021/09/18 10:46:51;;;;;;;;;;;19.60;61.70;;;;;;5003825;28;19921;-56
2021/09/18 10:49:39;;;;;;;;;;;19.60;61.60;;;;;;5019413;28;19914;-57
2021/09/18 10:52:16;;;;;;;;;;;19.60;61.30;;;;;;5011515;28;19917;-56
2021/09/18 10:55:10;;;;;;;;;;;19.60;60.90;;;;;;5006807;28;19920;-59
2021/09/18 10:57:39;;;;;;;;;;;19.60;61.40;;;;;;5011845;28;19936;-57
2021/09/18 11:00:06;;;;;;;;;;;19.60;61.70;;;;;;5019168;28;20367;-57
2021/09/18 11:02:34;;;;;;;;;;;19.60;62.00;;;;;;5014627;28;19922;-59
2021/09/18 11:05:00;;;;;;;;;;;19.60;62.20;;;;;;5004147;28;19922;-59
2021/09/18 11:07:40;;;;;;;;;;;19.60;62.50;;;;;;4999028;28;19913;-59
2021/09/18 11:10:13;;;;;;;;;;;19.60;62.70;;;;;;5014492;28;19913;-60
2021/09/18 11:12:38;;;;;;;;;;;19.60;62.90;;;;;;5012779;28;19924;-56
2021/09/18 11:15:05;;;;;;;;;;;19.60;62.70;;;;;;5018296;23;20132;-58
2021/09/18 11:17:34;;;;;;;;;;;19.60;62.90;;;;;;5029641;28;20068;-60
2021/09/18 11:20:18;;;;;;;;;;;19.60;63.80;;;;;;5035969;28;19917;-60
2021/09/18 11:22:43;;;;;;;;;;;19.60;63.30;;;;;;5025466;28;19921;-59
2021/09/18 11:25:28;;;;;;;;;;;19.60;63.70;;;;;;5024405;28;19921;-58
2021/09/18 11:28:12;;;;;;;;;;;19.60;64.30;;;;;;5027912;28;19996;-59
2021/09/18 11:30:37;;;;;;;;;;;19.60;65.10;;;;;;5030215;28;19917;-60
2021/09/18 11:33:03;;;;;;;;;;;19.70;65.40;;;;;;5028245;28;19913;-60
2021/09/18 11:35:28;;;;;;;;;;;19.60;65.90;;;;;;5037751;28;20334;-59
2021/09/18 11:37:54;;;;;;;;;;;19.60;66.60;;;;;;5028788;28;19913;-57
2021/09/18 11:40:19;;;;;;;;;;;19.60;67.10;;;;;;5018615;28;19921;-61
2021/09/18 11:42:45;;;;;;;;;;;19.60;67.70;;;;;;5032665;28;19924;-59
2021/09/18 11:45:11;;;;;;;;;;;19.70;67.80;;;;;;5038547;28;20360;-59
2021/09/18 11:47:42;;;;;;;;;;;19.70;66.70;;;;;;5030059;28;19914;-59
2021/09/18 11:50:26;;;;;;;;;;;19.70;65.50;;;;;;5022623;28;20169;-60
2021/09/18 11:52:55;;;;;;;;;;;19.70;67.40;;;;;;5029062;28;20259;-61
2021/09/18 11:55:29;;;;;;;;;;;19.70;67.20;;;;;;5030181;28;19925;-59
2021/09/18 11:58:05;;;;;;;;;;;19.70;66.70;;;;;;5036818;28;20417;-59
2021/09/18 12:00:30;;;;;;;;;;;19.70;66.90;;;;;;5022283;28;19917;-60
2021/09/18 12:02:57;;;;;;;;;;;19.70;66.80;;;;;;5029370;28;20106;-60
2021/09/18 12:05:22;;;;;;;;;;;19.70;66.80;;;;;;5024344;28;20545;-60
2021/09/18 12:07:48;;;;;;;;;;;19.70;67.00;;;;;;5028508;28;20224;-60
2021/09/18 12:10:15;;;;;;;;;;;19.60;67.10;;;;;;5023063;28;19923;-59
2021/09/18 12:12:40;;;;;;;;;;;19.70;66.20;;;;;;5031559;28;19921;-60
2021/09/18 12:15:06;;;;;;;;;;;19.60;66.80;;;;;;5026293;28;19975;-60
2021/09/18 12:17:36;;;;;;;;;;;19.70;66.70;;;;;;5026234;28;19917;-60
2021/09/18 12:20:04;;;;;;;;;;;19.60;66.80;;;;;;5043160;28;19951;-63
2021/09/18 12:22:29;;;;;;;;;;;19.70;66.60;;;;;;5034504;28;19917;-59
2021/09/18 12:24:55;;;;;;;;;;;19.60;66.80;;;;;;5029247;28;19912;-60
2021/09/18 12:27:24;;;;;;;;;;;19.60;67.00;;;;;;5045520;28;20377;-59
2021/09/18 12:30:06;;;;;;;;;;;19.60;66.80;;;;;;5023162;28;20622;-61
2021/09/18 12:32:31;;;;;;;;;;;19.70;66.80;;;;;;5042395;28;19913;-60
2021/09/18 12:34:57;;;;;;;;;;;19.60;67.10;;;;;;5032119;28;19912;-59
2021/09/18 12:37:27;;;;;;;;;;;19.70;67.00;;;;;;5043726;28;19955;-58
2021/09/18 12:39:52;;;;;;;;;;;19.60;66.40;;;;;;5043172;28;20369;-59
2021/09/18 12:42:18;;;;;;;;;;;19.60;66.80;;;;;;5044695;28;20246;-60
2021/09/18 12:44:43;;;;;;;;;;;19.60;67.00;;;;;;5038104;28;20317;-61
2021/09/18 12:47:30;;;;;;;;;;;19.70;67.10;;;;;;5023602;28;19913;-59
2021/09/18 12:49:55;;;;;;;;;;;19.70;67.10;;;;;;5037777;28;19919;-61
2021/09/18 12:52:29;;;;;;;;;;;19.60;66.40;;;;;;5043459;28;19913;-59
2021/09/18 12:54:54;;;;;;;;;;;19.60;66.80;;;;;;5047035;28;19913;-59
2021/09/18 12:57:20;;;;;;;;;;;19.60;67.20;;;;;;5037231;28;20027;-61
2021/09/18 12:59:45;;;;;;;;;;;19.60;67.30;;;;;;5045734;28;19923;-58
2021/09/18 13:02:11;;;;;;;;;;;19.60;66.90;;;;;;5033515;28;19924;-60
2021/09/18 13:04:41;;;;;;;;;;;19.60;67.20;;;;;;5034890;28;20381;-60
2021/09/18 13:07:08;;;;;;;;;;;19.60;67.50;;;;;;5037490;28;19941;-61
2021/09/18 13:09:34;;;;;;;;;;;19.60;67.40;;;;;;5029738;28;19939;-61
2021/09/18 13:12:09;;;;;;;;;;;19.60;67.60;;;;;;5033358;28;19914;-61
2021/09/18 13:14:38;;;;;;;;;;;19.60;67.60;;;;;;5023086;28;20011;-59
2021/09/18 13:17:07;;;;;;;;;;;19.60;67.70;;;;;;5044681;28;19921;-60
2021/09/18 13:19:51;;;;;;;;;;;19.60;67.50;;;;;;5032054;28;19913;-59
2021/09/18 13:22:23;;;;;;;;;;;19.60;67.80;;;;;;5042234;28;19979;-60
2021/09/18 13:24:49;;;;;;;;;;;19.60;68.00;;;;;;5032523;28;19913;-60
2021/09/18 13:27:15;;;;;;;;;;;19.60;67.70;;;;;;5044047;28;19970;-60
2021/09/18 13:29:40;;;;;;;;;;;19.60;67.90;;;;;;5040169;28;19960;-60
2021/09/18 13:32:06;;;;;;;;;;;19.60;68.00;;;;;;5039010;28;19920;-60
2021/09/18 13:34:31;;;;;;;;;;;19.70;67.90;;;;;;5032542;28;19913;-66
2021/09/18 13:36:57;;;;;;;;;;;19.60;68.10;;;;;;5042937;28;19921;-61
2021/09/18 13:39:22;;;;;;;;;;;19.70;68.10;;;;;;5043963;28;19916;-60
2021/09/18 13:41:47;;;;;;;;;;;19.70;68.20;;;;;;5043693;28;20577;-58
2021/09/18 13:44:13;;;;;;;;;;;19.60;67.90;;;;;;5021330;28;19916;-61
2021/09/18 13:46:38;;;;;;;;;;;19.60;68.00;;;;;;5039408;28;19964;-60
2021/09/18 13:49:04;;;;;;;;;;;19.60;67.90;;;;;;5023737;28;20400;-60
2021/09/18 13:51:30;;;;;;;;;;;19.60;68.10;;;;;;5030866;28;19924;-58
2021/09/18 13:53:55;;;;;;;;;;;19.60;68.00;;;;;;5027358;28;20350;-60
2021/09/18 13:56:21;;;;;;;;;;;19.70;68.00;;;;;;5035333;28;20020;-61
2021/09/18 13:58:46;;;;;;;;;;;19.70;68.10;;;;;;5037815;28;19913;-60
2021/09/18 14:01:12;;;;;;;;;;;19.70;68.20;;;;;;5044366;28;19932;-60
2021/09/18 14:03:37;;;;;;;;;;;19.60;68.30;;;;;;5020371;28;19917;-60
2021/09/18 14:06:03;;;;;;;;;;;19.60;68.20;;;;;;5038854;28;19921;-60
2021/09/18 14:08:29;;;;;;;;;;;19.60;68.30;;;;;;5028843;28;20409;-60
2021/09/18 14:10:54;;;;;;;;;;;19.60;68.10;;;;;;5047852;28;20000;-61
2021/09/18 14:13:21;;;;;;;;;;;19.60;68.30;;;;;;5024844;28;19913;-63
2021/09/18 14:15:47;;;;;;;;;;;19.60;68.30;;;;;;5021069;28;19928;-60
2021/09/18 14:18:13;;;;;;;;;;;19.70;68.20;;;;;;5025495;28;20310;-58